Time;durP1;ratioP1;P1;durP2;ratioP2;P2;SDS_P1;SDS_P2;PMS_P1;PMS_P2;Temp;Humidity;BMP_temperature;BMP_pressure;BME280_temperature;BME280_humidity;BME280_pressure;Samples;Min_cycle;Max_cycle;Signal;HPM_P1;HPM_P2
2022/09/03 00:01:00;;;;;;;9.70;5.47;;;;;;;18.42;46.40;100993.91;4989414;28;20144;-62
2022/09/03 00:03:42;;;;;;;7.30;5.40;;;;;;;18.38;45.71;100995.69;4986239;28;20041;-62
2022/09/03 00:06:22;;;;;;;7.50;5.35;;;;;;;18.37;46.24;100993.94;4990634;28;20117;-63
2022/09/03 00:09:00;;;;;;;6.75;5.30;;;;;;;18.34;46.09;100995.72;4984160;28;20099;-62
2022/09/03 00:12:03;;;;;;;7.72;4.95;;;;;;;18.34;45.83;100993.09;4987850;28;20265;-62
2022/09/03 00:14:36;;;;;;;7.68;5.18;;;;;;;18.26;46.70;100993.13;4989013;28;20043;-62
2022/09/03 00:17:09;;;;;;;7.03;5.65;;;;;;;18.25;46.25;100992.25;4989288;28;20037;-63
2022/09/03 00:19:53;;;;;;;8.30;5.32;;;;;;;18.20;46.92;100982.59;4986459;28;20545;-62
2022/09/03 00:22:24;;;;;;;9.73;5.57;;;;;;;18.15;46.97;100990.56;4988119;28;20076;-61
2022/09/03 00:24:51;;;;;;;6.97;5.40;;;;;;;18.15;46.95;100990.56;4989685;28;20045;-61
2022/09/03 00:27:22;;;;;;;7.00;5.78;;;;;;;18.06;47.14;100994.13;4978660;28;20101;-61
2022/09/03 00:30:09;;;;;;;7.90;6.20;;;;;;;18.07;46.68;100987.97;4988810;28;20042;-61
2022/09/03 00:32:46;;;;;;;6.38;5.72;;;;;;;18.00;46.89;100990.63;4988877;28;20033;-62
2022/09/03 00:35:36;;;;;;;7.75;5.90;;;;;;;17.96;46.77;100989.78;4988301;28;20026;-62
2022/09/03 00:38:02;;;;;;;6.60;5.72;;;;;;;17.89;47.32;100988.88;4987953;28;20289;-62
2022/09/03 00:40:33;;;;;;;7.28;5.88;;;;;;;17.87;47.63;100992.41;4987678;28;20057;-62
2022/09/03 00:43:23;;;;;;;8.20;5.43;;;;;;;17.86;47.54;100994.16;4986329;28;20038;-62
2022/09/03 00:46:04;;;;;;;7.85;5.93;;;;;;;17.80;47.66;100994.19;4984112;28;20069;-62
2022/09/03 00:48:40;;;;;;;6.22;5.50;;;;;;;17.81;47.52;100993.28;4986938;28;20034;-62
2022/09/03 00:51:08;;;;;;;7.10;5.35;;;;;;;17.77;47.40;100988.94;4983212;28;20053;-62
2022/09/03 00:53:43;;;;;;;7.32;5.53;;;;;;;17.72;48.00;100991.56;4988278;28;20167;-61
2022/09/03 00:56:55;;;;;;;7.00;5.80;;;;;;;17.70;47.52;100990.72;4988300;28;20088;-62
2022/09/03 00:59:27;;;;;;;6.82;5.65;;;;;;;17.67;47.97;100997.75;4980232;28;20065;-62
2022/09/03 01:02:02;;;;;;;7.57;5.68;;;;;;;17.62;48.03;100978.44;4988457;28;20030;-60
2022/09/03 01:04:42;;;;;;;6.82;5.82;;;;;;;17.64;47.48;100985.47;4986286;28;20108;-62
2022/09/03 01:07:29;;;;;;;6.75;5.47;;;;;;;17.58;47.58;100987.25;4986012;28;20030;-62
2022/09/03 01:10:37;;;;;;;6.82;5.40;;;;;;;17.56;48.08;100984.63;4989432;28;20038;-62
2022/09/03 01:13:08;;;;;;;7.65;5.60;;;;;;;17.54;47.89;100984.63;4984799;28;20029;-62
2022/09/03 01:15:49;;;;;;;7.10;5.78;;;;;;;17.50;48.28;100984.63;4983259;28;20405;-61
2022/09/03 01:18:24;;;;;;;9.43;5.90;;;;;;;17.46;48.44;100986.38;4985620;28;20038;-63
2022/09/03 01:21:27;;;;;;;7.22;5.80;;;;;;;17.45;48.18;100979.41;4986312;28;20057;-62
2022/09/03 01:24:00;;;;;;;6.85;5.38;;;;;;;17.40;48.44;100975.88;4987804;28;20050;-62
2022/09/03 01:26:34;;;;;;;6.95;5.45;;;;;;;17.33;49.25;100971.50;4988113;28;20026;-61
2022/09/03 01:29:11;;;;;;;6.82;5.97;;;;;;;17.29;48.91;100980.28;4984622;28;20067;-62
2022/09/03 01:32:00;;;;;;;7.22;5.72;;;;;;;17.28;48.34;100989.06;4981620;28;20029;-62
2022/09/03 01:35:00;;;;;;;7.47;5.63;;;;;;;17.26;48.80;100988.19;4985727;28;20393;-62
2022/09/03 01:37:40;;;;;;;6.50;5.63;;;;;;;17.23;49.09;100993.47;4988385;28;20038;-62
2022/09/03 01:40:05;;;;;;;8.88;5.90;;;;;;;17.17;49.01;100986.47;4982292;28;20042;-62
2022/09/03 01:43:01;;;;;;;7.20;6.30;;;;;;;17.14;48.60;100987.34;4988881;28;20112;-62
2022/09/03 01:46:00;;;;;;;10.55;5.90;;;;;;;17.10;48.63;100987.34;4982652;28;20030;-62
2022/09/03 01:48:45;;;;;;;7.55;5.75;;;;;;;17.06;49.28;100986.50;4982820;28;20018;-62
2022/09/03 01:51:26;;;;;;;6.75;5.80;;;;;;;17.06;48.81;100982.97;4977664;28;20117;-62
2022/09/03 01:54:36;;;;;;;7.65;5.70;;;;;;;17.02;49.23;100977.69;4989071;28;20319;-62
2022/09/03 01:57:08;;;;;;;6.75;5.95;;;;;;;16.97;49.52;100981.22;4983013;28;20121;-62
2022/09/03 01:59:47;;;;;;;7.38;5.80;;;;;;;16.94;49.77;100982.09;4985962;28;20037;-62
2022/09/03 02:02:20;;;;;;;8.65;5.60;;;;;;;16.95;49.39;100982.97;4986023;28;20030;-61
2022/09/03 02:05:23;;;;;;;7.40;5.60;;;;;;;16.91;49.40;100989.13;4989684;28;20507;-61
2022/09/03 02:07:59;;;;;;;8.20;5.70;;;;;;;16.85;49.86;100980.28;4977226;28;20046;-61
2022/09/03 02:10:31;;;;;;;7.72;6.25;;;;;;;16.83;50.37;100976.81;4986806;28;20027;-61
2022/09/03 02:13:03;;;;;;;6.60;5.75;;;;;;;16.81;50.11;100983.81;4983402;28;20043;-61
2022/09/03 02:15:31;;;;;;;7.82;5.60;;;;;;;16.77;50.32;100989.97;4976032;28;20339;-62
2022/09/03 02:18:01;;;;;;;6.90;5.78;;;;;;;16.77;50.35;100984.72;4977458;28;20030;-62
2022/09/03 02:20:28;;;;;;;7.00;5.72;;;;;;;16.71;50.99;100983.81;4985218;28;20106;-62
2022/09/03 02:22:56;;;;;;;7.55;5.70;;;;;;;16.68;50.50;100979.41;4986509;28;20296;-62
2022/09/03 02:25:28;;;;;;;6.68;5.47;;;;;;;16.64;50.88;100980.28;4986966;28;20065;-62
2022/09/03 02:27:54;;;;;;;8.05;5.47;;;;;;;16.62;50.66;100976.78;4984524;28;20034;-62
2022/09/03 02:30:19;;;;;;;6.75;5.07;;;;;;;16.58;50.80;100975.03;4983326;28;20031;-62
2022/09/03 02:32:45;;;;;;;7.85;5.30;;;;;;;16.57;50.70;100974.16;4986804;28;20018;-62
2022/09/03 02:35:11;;;;;;;6.43;5.05;;;;;;;16.57;51.18;100974.16;4984915;28;20041;-62
2022/09/03 02:37:37;;;;;;;6.00;4.57;;;;;;;16.55;50.92;100965.38;4986167;28;20034;-62
2022/09/03 02:40:07;;;;;;;6.65;5.10;;;;;;;16.52;51.54;100983.78;4987341;28;20041;-62
2022/09/03 02:42:33;;;;;;;6.15;5.03;;;;;;;16.47;51.85;100980.28;4985740;28;20053;-62
2022/09/03 02:45:08;;;;;;;5.45;4.63;;;;;;;16.47;51.35;100983.78;4984418;28;20113;-62
2022/09/03 02:47:36;;;;;;;7.07;5.00;;;;;;;16.42;51.82;100974.13;4980224;28;20022;-62
2022/09/03 02:50:02;;;;;;;5.38;4.68;;;;;;;16.40;51.56;100976.75;4986066;28;20459;-62
2022/09/03 02:52:27;;;;;;;6.18;4.80;;;;;;;16.37;51.70;100975.91;4990721;28;20383;-62
2022/09/03 02:54:52;;;;;;;6.90;4.80;;;;;;;16.37;51.45;100975.91;4989782;28;20040;-62
2022/09/03 02:57:17;;;;;;;7.55;5.00;;;;;;;16.37;51.66;100981.16;4990633;28;20030;-61
2022/09/03 02:59:44;;;;;;;5.97;4.70;;;;;;;16.34;51.10;100979.41;4987777;28;20022;-61
2022/09/03 03:02:10;;;;;;;6.47;4.80;;;;;;;16.33;51.92;100985.50;4989429;28;20065;-61
2022/09/03 03:04:36;;;;;;;6.15;4.40;;;;;;;16.31;51.84;100971.50;4992400;28;20034;-62
2022/09/03 03:07:02;;;;;;;6.30;4.72;;;;;;;16.26;51.93;100981.13;4990299;28;20496;-62
2022/09/03 03:09:27;;;;;;;6.85;4.47;;;;;;;16.23;51.62;100974.09;4987580;28;20042;-62
2022/09/03 03:11:54;;;;;;;5.32;4.45;;;;;;;16.23;52.21;100965.34;4991928;28;20066;-62
2022/09/03 03:14:20;;;;;;;6.57;4.20;;;;;;;16.24;52.27;100964.47;4990842;28;20026;-62
2022/09/03 03:16:45;;;;;;;5.72;4.25;;;;;;;16.23;51.92;100968.84;4991315;28;20030;-62
2022/09/03 03:19:10;;;;;;;6.22;4.38;;;;;;;16.19;52.32;100971.47;4988382;28;20390;-61
2022/09/03 03:21:36;;;;;;;6.68;4.40;;;;;;;16.19;52.38;100969.69;4980805;28;20497;-61
2022/09/03 03:24:02;;;;;;;7.47;4.38;;;;;;;16.15;52.49;100979.34;4990296;28;20072;-61
2022/09/03 03:26:28;;;;;;;6.10;4.15;;;;;;;16.13;52.13;100977.56;4989153;28;20062;-61
2022/09/03 03:28:59;;;;;;;5.95;4.40;;;;;;;16.09;52.22;100975.81;4987707;28;20069;-61
2022/09/03 03:31:26;;;;;;;5.40;4.40;;;;;;;16.11;51.79;100979.34;4990630;28;20034;-61
2022/09/03 03:33:56;;;;;;;6.65;4.43;;;;;;;16.09;52.28;100981.97;4986972;28;20026;-61
2022/09/03 03:36:23;;;;;;;5.82;4.60;;;;;;;16.08;51.82;100974.94;4990951;28;20493;-62
2022/09/03 03:38:53;;;;;;;6.45;4.40;;;;;;;16.01;52.33;100973.16;4990072;28;20053;-61
2022/09/03 03:41:21;;;;;;;5.72;4.38;;;;;;;16.00;52.48;100974.03;4987389;28;20037;-61
2022/09/03 03:43:51;;;;;;;5.63;4.50;;;;;;;15.95;52.44;100968.75;4987131;28;21525;-62
2022/09/03 03:46:16;;;;;;;6.03;4.22;;;;;;;15.96;52.73;100975.78;4982787;28;20382;-62
2022/09/03 03:48:41;;;;;;;7.57;4.32;;;;;;;15.97;51.77;100974.03;4987657;28;20034;-62
2022/09/03 03:51:08;;;;;;;5.80;4.38;;;;;;;15.91;52.96;100974.00;4990586;28;20030;-61
2022/09/03 03:53:35;;;;;;;6.32;4.32;;;;;;;15.88;52.84;100972.25;4982011;28;20038;-62
2022/09/03 03:56:03;;;;;;;5.25;4.40;;;;;;;15.85;53.38;100972.22;4990032;28;20085;-62
2022/09/03 03:58:30;;;;;;;5.93;3.90;;;;;;;15.85;52.90;100976.63;4989363;28;20027;-62
2022/09/03 04:01:06;;;;;;;6.00;4.32;;;;;;;15.84;53.33;100964.34;4985533;28;20117;-62
2022/09/03 04:03:31;;;;;;;6.70;4.20;;;;;;;15.82;53.03;100962.59;4987761;28;20105;-62
2022/09/03 04:05:59;;;;;;;6.53;3.97;;;;;;;15.80;52.93;100972.22;4990396;28;20542;-62
2022/09/03 04:08:27;;;;;;;6.13;4.00;;;;;;;15.80;53.51;100969.59;4986232;28;20536;-60
2022/09/03 04:10:53;;;;;;;6.27;3.70;;;;;;;15.81;53.37;100971.34;4988711;28;20038;-61
2022/09/03 04:13:19;;;;;;;7.22;4.53;;;;;;;15.81;53.43;100975.72;4987966;28;20027;-61
2022/09/03 04:15:44;;;;;;;5.60;3.83;;;;;;;15.81;53.08;100971.34;4994613;28;20031;-61
2022/09/03 04:18:10;;;;;;;4.57;4.00;;;;;;;15.78;53.22;100967.78;4987891;28;20030;-61
2022/09/03 04:20:36;;;;;;;5.70;4.00;;;;;;;15.77;53.36;100972.19;4987844;28;20032;-61
2022/09/03 04:23:02;;;;;;;6.10;3.83;;;;;;;15.74;53.53;100966.91;4987578;28;20505;-61
2022/09/03 04:25:28;;;;;;;5.05;4.55;;;;;;;15.73;53.54;100961.63;4981921;28;20545;-60
2022/09/03 04:27:53;;;;;;;5.60;4.45;;;;;;;15.71;53.54;100966.88;4988863;28;20113;-61
2022/09/03 04:30:19;;;;;;;4.90;4.40;;;;;;;15.71;53.60;100964.25;4986503;28;20037;-61
2022/09/03 04:32:54;;;;;;;6.80;4.45;;;;;;;15.68;53.46;100956.34;4984554;28;20501;-62
2022/09/03 04:35:21;;;;;;;9.77;4.43;;;;;;;15.65;53.95;100961.59;4988771;28;20038;-59
2022/09/03 04:37:46;;;;;;;9.75;4.60;;;;;;;15.63;53.79;100965.97;4987751;28;20374;-61
2022/09/03 04:40:12;;;;;;;7.30;4.30;;;;;;;15.61;53.91;100960.72;4990134;28;20032;-61
2022/09/03 04:42:37;;;;;;;7.32;4.63;;;;;;;15.62;53.71;100961.59;4989120;28;20046;-61
2022/09/03 04:45:03;;;;;;;8.75;4.20;;;;;;;15.62;53.30;100964.22;4987230;28;20034;-61
2022/09/03 04:47:29;;;;;;;5.50;3.95;;;;;;;15.60;53.86;100966.84;4986465;28;20089;-60
2022/09/03 04:49:54;;;;;;;4.63;3.55;;;;;;;15.58;54.15;100965.97;4989208;28;20087;-61
2022/09/03 04:52:20;;;;;;;5.63;3.85;;;;;;;15.55;53.98;100967.69;4987545;28;20375;-62
2022/09/03 04:54:45;;;;;;;4.97;3.72;;;;;;;15.53;54.29;100969.44;4989164;28;20037;-61
2022/09/03 04:57:10;;;;;;;5.47;3.35;;;;;;;15.52;54.14;100972.94;4981358;28;20149;-61
2022/09/03 04:59:36;;;;;;;5.78;3.75;;;;;;;15.48;54.03;100972.91;4988436;28;20066;-61
2022/09/03 05:02:01;;;;;;;6.75;3.90;;;;;;;15.46;54.08;100968.50;4984573;28;20180;-61
2022/09/03 05:04:27;;;;;;;5.93;3.60;;;;;;;15.45;53.75;100972.91;4983096;28;20027;-61
2022/09/03 05:06:52;;;;;;;6.03;3.75;;;;;;;15.45;54.39;100974.63;4988351;28;20044;-62
2022/09/03 05:09:18;;;;;;;5.90;3.60;;;;;;;15.45;54.52;100978.16;4985032;28;20478;-60
2022/09/03 05:11:43;;;;;;;5.32;3.65;;;;;;;15.41;54.92;100970.22;4989220;28;20026;-62
2022/09/03 05:14:11;;;;;;;5.85;3.47;;;;;;;15.40;54.08;100966.72;4986208;28;20050;-61
2022/09/03 05:16:37;;;;;;;4.90;3.42;;;;;;;15.39;54.91;100966.72;4988534;28;20029;-62
2022/09/03 05:19:06;;;;;;;6.32;3.40;;;;;;;15.38;54.77;100963.22;4983829;28;20034;-62
2022/09/03 05:21:34;;;;;;;4.70;3.40;;;;;;;15.36;55.35;100974.59;4988657;28;20576;-62
2022/09/03 05:24:00;;;;;;;4.78;3.30;;;;;;;15.37;54.65;100966.72;4985744;28;20049;-62
2022/09/03 05:26:28;;;;;;;6.03;3.40;;;;;;;15.35;55.11;100965.84;4986264;28;20046;-61
2022/09/03 05:29:00;;;;;;;5.75;3.40;;;;;;;15.35;55.02;100964.94;4985322;28;20481;-61
2022/09/03 05:31:27;;;;;;;5.30;3.30;;;;;;;15.34;54.85;100966.72;4978466;28;20030;-62
2022/09/03 05:33:57;;;;;;;5.35;3.45;;;;;;;15.32;55.54;100964.94;4985596;28;20026;-62
2022/09/03 05:36:24;;;;;;;5.20;3.13;;;;;;;15.32;55.25;100965.78;4988131;28;20371;-62
2022/09/03 05:38:50;;;;;;;4.88;3.22;;;;;;;15.30;55.47;100967.56;4987019;28;20029;-61
2022/09/03 05:41:17;;;;;;;5.75;3.38;;;;;;;15.30;55.73;100960.53;4987954;28;20061;-61
2022/09/03 05:43:42;;;;;;;4.40;3.35;;;;;;;15.31;55.79;100964.06;4988651;28;20409;-61
2022/09/03 05:46:16;;;;;;;5.63;3.20;;;;;;;15.30;55.56;100963.16;4987732;28;20569;-61
2022/09/03 05:48:41;;;;;;;5.40;3.17;;;;;;;15.31;55.42;100969.31;4987610;28;20022;-62
2022/09/03 05:51:10;;;;;;;4.55;3.20;;;;;;;15.30;56.24;100970.19;4988746;28;20038;-61
2022/09/03 05:53:38;;;;;;;6.55;3.25;;;;;;;15.30;56.13;100963.16;4989310;28;20053;-61
2022/09/03 05:56:10;;;;;;;5.77;3.27;;;;;;;15.32;55.83;100965.78;4988912;28;20269;-61
2022/09/03 05:58:42;;;;;;;4.95;3.22;;;;;;;15.31;56.65;100969.31;4986938;28;20466;-61
2022/09/03 06:01:29;;;;;;;6.18;3.10;;;;;;;15.34;55.94;100965.81;4981898;28;20370;-62
2022/09/03 06:03:57;;;;;;;6.20;3.40;;;;;;;15.36;55.46;100966.72;4986840;28;20122;-61
2022/09/03 06:06:24;;;;;;;6.32;3.63;;;;;;;15.38;56.09;100965.84;4989532;28;20030;-61
2022/09/03 06:08:57;;;;;;;5.30;3.20;;;;;;;15.39;56.27;100972.84;4981213;28;20485;-61
2022/09/03 06:11:28;;;;;;;7.18;3.70;;;;;;;15.43;56.06;100971.13;4986050;28;20038;-61
2022/09/03 06:14:00;;;;;;;6.75;3.45;;;;;;;15.45;56.27;100972.91;4980253;28;20030;-62
2022/09/03 06:16:27;;;;;;;6.05;3.40;;;;;;;15.48;56.05;100980.78;4985255;28;20148;-62
2022/09/03 06:18:53;;;;;;;6.93;3.90;;;;;;;15.53;55.65;100972.06;4979865;28;20045;-61
2022/09/03 06:21:19;;;;;;;6.65;3.50;;;;;;;15.56;56.86;100974.69;4978905;28;20109;-61
2022/09/03 06:23:50;;;;;;;4.50;3.25;;;;;;;15.59;56.13;100970.31;4994078;28;20127;-61
2022/09/03 06:26:17;;;;;;;5.40;3.30;;;;;;;15.63;56.82;100972.09;4992770;28;20030;-61
2022/09/03 06:28:43;;;;;;;5.82;4.10;;;;;;;15.67;57.48;100972.13;4986472;28;20045;-61
2022/09/03 06:31:12;;;;;;;5.85;3.63;;;;;;;15.70;57.82;100974.75;4982619;28;20045;-62
2022/09/03 06:33:38;;;;;;;6.83;3.90;;;;;;;15.73;56.65;100977.38;4988631;28;20042;-62
2022/09/03 06:36:06;;;;;;;8.63;3.83;;;;;;;15.76;56.67;100975.66;4991714;28;20380;-61
2022/09/03 06:38:34;;;;;;;6.75;3.88;;;;;;;15.81;55.62;100973.09;4991817;28;20026;-62
2022/09/03 06:41:02;;;;;;;9.85;4.85;;;;;;;15.85;55.64;100974.00;4991570;28;20058;-62
2022/09/03 06:43:29;;;;;;;8.52;4.35;;;;;;;15.90;54.94;100981.03;4991703;28;20134;-62
2022/09/03 06:45:55;;;;;;;6.72;3.80;;;;;;;15.94;54.96;100981.91;4988923;28;20472;-62
2022/09/03 06:48:21;;;;;;;5.75;4.07;;;;;;;15.98;55.72;100978.41;4987192;28;20030;-62
2022/09/03 06:51:10;;;;;;;7.57;4.50;;;;;;;16.04;55.34;100981.06;4992776;28;20026;-62
2022/09/03 06:53:42;;;;;;;6.55;3.80;;;;;;;16.08;55.26;100980.19;4991398;28;20042;-62
2022/09/03 06:56:10;;;;;;;7.45;4.10;;;;;;;16.13;55.35;100978.47;4983942;28;20031;-61
2022/09/03 06:58:43;;;;;;;7.85;4.88;;;;;;;16.19;55.46;100979.34;4990698;28;20034;-62
2022/09/03 07:01:11;;;;;;;8.25;4.53;;;;;;;16.23;55.27;100974.09;4991549;28;20034;-62
2022/09/03 07:03:39;;;;;;;7.83;4.57;;;;;;;16.28;55.39;100979.34;4991482;28;20556;-61
2022/09/03 07:06:10;;;;;;;6.78;4.50;;;;;;;16.31;54.81;100982.88;4989748;28;20038;-61
2022/09/03 07:08:35;;;;;;;8.38;4.72;;;;;;;16.35;56.16;100973.22;4977536;28;20576;-62
2022/09/03 07:11:04;;;;;;;6.80;4.57;;;;;;;16.40;56.05;100981.16;4975530;28;20112;-62
2022/09/03 07:13:31;;;;;;;7.15;4.65;;;;;;;16.45;56.00;100971.50;4979825;28;20014;-62
2022/09/03 07:16:02;;;;;;;10.45;4.85;;;;;;;16.50;55.64;100982.94;4978185;28;20068;-62
2022/09/03 07:18:28;;;;;;;10.68;5.53;;;;;;;16.55;55.49;100981.16;4977872;28;20149;-62
2022/09/03 07:21:02;;;;;;;8.18;5.28;;;;;;;16.61;55.60;100975.03;4984582;28;20409;-62
2022/09/03 07:23:29;;;;;;;8.13;5.38;;;;;;;16.67;55.89;100983.81;4980709;28;20054;-62
2022/09/03 07:26:00;;;;;;;13.60;5.60;;;;;;;16.72;55.04;100978.56;4986785;28;20038;-63
2022/09/03 07:28:27;;;;;;;11.38;6.20;;;;;;;16.78;53.39;100977.69;4981863;28;20112;-63
2022/09/03 07:30:54;;;;;;;13.18;6.13;;;;;;;16.83;54.61;100974.16;4978677;28;20034;-62
2022/09/03 07:33:19;;;;;;;10.40;5.80;;;;;;;16.90;54.80;100982.09;4984649;28;20017;-62
2022/09/03 07:35:46;;;;;;;12.45;6.22;;;;;;;16.95;54.19;100982.97;4980848;28;20508;-62
2022/09/03 07:38:17;;;;;;;13.25;5.82;;;;;;;17.00;54.62;100982.09;4975290;28;20486;-61
2022/09/03 07:40:43;;;;;;;10.73;5.95;;;;;;;17.07;53.91;100979.44;4977997;28;20069;-61
2022/09/03 07:43:08;;;;;;;8.77;5.22;;;;;;;17.14;54.61;100981.19;4988395;28;20126;-61
2022/09/03 07:45:34;;;;;;;9.48;4.82;;;;;;;17.21;54.12;100982.94;4980416;28;20035;-60
2022/09/03 07:47:59;;;;;;;8.27;5.25;;;;;;;17.27;53.63;100987.34;4986815;28;20493;-61
2022/09/03 07:50:25;;;;;;;9.38;4.63;;;;;;;17.33;53.09;100980.28;4986090;28;20039;-61
2022/09/03 07:52:59;;;;;;;9.45;4.70;;;;;;;17.38;53.25;100982.91;4982667;28;20030;-61
2022/09/03 07:55:24;;;;;;;8.32;3.78;;;;;;;17.46;53.18;100985.53;5003133;28;20084;-60
2022/09/03 07:57:55;;;;;;;8.00;4.00;;;;;;;17.53;53.95;100987.25;4994167;28;20437;-61
2022/09/03 08:00:20;;;;;;;6.20;4.00;;;;;;;17.61;52.77;100981.97;4996242;28;20057;-60
2022/09/03 08:02:45;;;;;;;6.47;3.67;;;;;;;17.68;53.28;100983.69;4989796;28;20125;-61
2022/09/03 08:05:11;;;;;;;6.65;3.58;;;;;;;17.77;52.57;100995.97;4990346;28;20036;-61
2022/09/03 08:07:36;;;;;;;6.45;3.42;;;;;;;17.85;51.85;100992.41;4990942;28;20026;-61
2022/09/03 08:10:01;;;;;;;7.35;3.30;;;;;;;17.91;52.26;100983.63;4991377;28;20030;-61
2022/09/03 08:12:27;;;;;;;7.78;3.20;;;;;;;18.00;52.93;100985.34;4990849;28;20023;-60
2022/09/03 08:14:52;;;;;;;7.00;3.30;;;;;;;18.04;52.54;100989.72;4992365;28;20068;-60
2022/09/03 08:17:17;;;;;;;6.55;3.55;;;;;;;18.09;52.08;100990.59;4989932;28;20113;-61
2022/09/03 08:19:44;;;;;;;7.10;3.05;;;;;;;18.17;52.17;100993.19;4992267;28;20026;-61
2022/09/03 08:22:10;;;;;;;5.28;2.67;;;;;;;18.24;51.75;100997.53;4986398;28;20062;-61
2022/09/03 08:24:35;;;;;;;4.85;2.67;;;;;;;18.32;53.12;100998.38;4991832;28;20068;-61
2022/09/03 08:27:01;;;;;;;6.32;2.85;;;;;;;18.40;52.43;101004.47;4991076;28;20033;-61
2022/09/03 08:29:26;;;;;;;4.40;2.30;;;;;;;18.51;51.74;100998.22;4989849;28;20022;-61
2022/09/03 08:31:52;;;;;;;4.97;2.30;;;;;;;18.60;50.95;101000.84;4991083;28;20125;-60
2022/09/03 08:34:17;;;;;;;4.80;2.10;;;;;;;18.68;51.50;101003.41;4990080;28;20056;-60
2022/09/03 08:36:45;;;;;;;3.83;1.63;;;;;;;18.75;51.08;101007.75;4988659;28;20101;-59
2022/09/03 08:39:11;;;;;;;5.20;2.15;;;;;;;18.82;50.36;101004.19;4991542;28;20117;-60
2022/09/03 08:41:52;;;;;;;3.55;2.05;;;;;;;18.96;50.85;101003.22;4990853;28;20109;-60
2022/09/03 08:44:49;;;;;;;4.65;1.92;;;;;;;19.03;51.03;100997.88;4989132;28;20042;-60
2022/09/03 08:47:20;;;;;;;5.50;2.00;;;;;;;19.17;50.40;101004.78;4989924;28;20488;-60
2022/09/03 08:49:51;;;;;;;6.05;2.10;;;;;;;19.21;49.42;101007.38;4990700;28;20033;-58
2022/09/03 08:52:19;;;;;;;4.25;2.50;;;;;;;19.35;49.86;101003.72;4990451;28;20482;-60
2022/09/03 08:54:47;;;;;;;4.40;2.00;;;;;;;19.47;49.21;101000.97;4990012;28;20034;-59
2022/09/03 08:57:15;;;;;;;4.45;1.80;;;;;;;19.52;48.64;100998.28;4989146;28;20022;-60
2022/09/03 08:59:40;;;;;;;4.20;1.70;;;;;;;19.62;49.43;101003.44;4990117;28;20022;-60
2022/09/03 09:02:05;;;;;;;5.55;1.90;;;;;;;19.78;49.75;101000.59;4989793;28;20031;-60
2022/09/03 09:04:51;;;;;;;3.80;2.00;;;;;;;19.92;47.79;101001.34;4986180;28;20043;-60
2022/09/03 09:07:45;;;;;;;5.45;1.90;;;;;;;20.05;48.58;100998.56;4986877;28;20034;-60
2022/09/03 09:10:32;;;;;;;4.90;2.05;;;;;;;20.14;47.97;101006.34;4979696;28;20038;-60
2022/09/03 09:13:06;;;;;;;4.45;2.05;;;;;;;20.27;47.69;101001.78;4986203;28;20572;-60
2022/09/03 09:16:00;;;;;;;3.90;1.92;;;;;;;20.37;47.44;100999.88;4979614;28;20026;-59
2022/09/03 09:18:50;;;;;;;5.25;2.10;;;;;;;20.48;46.47;100997.97;4977159;28;20030;-60
2022/09/03 09:21:34;;;;;;;2.95;2.00;;;;;;;20.59;46.68;101003.94;4983209;28;20544;-60
2022/09/03 09:24:03;;;;;;;2.80;1.88;;;;;;;20.72;46.00;101009.09;4983071;28;20509;-60
2022/09/03 09:26:29;;;;;;;6.00;2.00;;;;;;;20.84;46.47;101011.53;4986906;28;20088;-60
2022/09/03 09:29:00;;;;;;;5.70;2.20;;;;;;;20.93;46.06;101008.75;4984982;28;20778;-61
2022/09/03 09:31:27;;;;;;;4.70;2.03;;;;;;;21.09;44.79;101003.19;4984439;28;20057;-60
2022/09/03 09:33:52;;;;;;;5.43;2.15;;;;;;;21.19;45.58;100999.47;4983149;28;20022;-59
2022/09/03 09:36:20;;;;;;;3.13;1.73;;;;;;;21.26;45.58;100993.16;4985721;28;20052;-59
2022/09/03 09:38:47;;;;;;;4.88;2.30;;;;;;;21.37;44.61;100995.59;4984095;28;20105;-59
2022/09/03 09:41:18;;;;;;;4.60;2.00;;;;;;;21.50;45.68;100994.44;4979569;28;20120;-60
2022/09/03 09:43:46;;;;;;;3.50;2.00;;;;;;;21.58;44.61;100989.03;4980939;28;20125;-60
2022/09/03 09:46:24;;;;;;;3.05;2.00;;;;;;;21.66;44.74;100995.03;4979297;28;20026;-60
2022/09/03 09:48:55;;;;;;;4.22;1.80;;;;;;;21.75;44.51;100996.63;4979043;28;20105;-60
2022/09/03 09:51:27;;;;;;;8.05;2.08;;;;;;;21.85;44.80;101002.63;4978937;28;20038;-60
2022/09/03 09:54:01;;;;;;;4.95;2.13;;;;;;;21.94;44.59;101001.56;4980641;28;20057;-60
2022/09/03 09:56:27;;;;;;;9.25;2.70;;;;;;;22.12;43.17;101003.84;4980068;28;20032;-50
2022/09/03 09:59:06;;;;;;;3.92;2.00;;;;;;;22.15;43.82;100998.44;4982031;28;20030;-49
2022/09/03 10:01:32;;;;;;;3.97;1.92;;;;;;;22.29;43.31;100999.91;4989583;28;20034;-51
2022/09/03 10:04:11;;;;;;;3.72;2.20;;;;;;;22.39;42.96;101012.09;4992002;28;20636;-50
2022/09/03 10:09:23;;;;;;;4.18;2.25;;;;;;;22.51;42.88;101005.66;4985561;28;20520;-50
2022/09/03 10:12:04;;;;;;;3.67;2.10;;;;;;;22.63;43.19;101001.84;4992845;28;20038;-49
2022/09/03 10:14:38;;;;;;;5.97;2.50;;;;;;;22.71;41.78;100997.19;4993346;28;20026;-50
2022/09/03 10:17:28;;;;;;;4.97;2.10;;;;;;;22.83;43.08;100993.38;4994870;28;20026;-50
2022/09/03 10:20:30;;;;;;;5.95;2.20;;;;;;;22.92;42.75;100983.38;4991599;28;20046;-50
2022/09/03 10:23:24;;;;;;;4.97;2.20;;;;;;;23.02;42.94;100988.47;4989632;28;20022;-53
2022/09/03 10:26:06;;;;;;;5.90;2.20;;;;;;;23.19;41.13;100980.09;4994210;28;20030;-52
2022/09/03 10:28:33;;;;;;;4.05;2.25;;;;;;;23.32;41.64;100978.81;4989724;28;20113;-59
2022/09/03 10:31:14;;;;;;;3.85;2.20;;;;;;;23.46;40.75;100981.09;4986682;28;20438;-61
2022/09/03 10:33:51;;;;;;;3.83;2.20;;;;;;;23.59;40.76;100978.97;4990442;28;20037;-59
2022/09/03 10:36:22;;;;;;;5.82;2.10;;;;;;;23.67;40.69;100974.28;4993181;28;20034;-60
2022/09/03 10:38:58;;;;;;;4.85;2.15;;;;;;;23.76;40.75;100976.69;5000800;28;20025;-61
2022/09/03 10:41:29;;;;;;;5.00;2.00;;;;;;;23.82;41.02;100975.63;4989590;28;20030;-60
2022/09/03 10:44:19;;;;;;;3.65;1.90;;;;;;;23.96;40.30;100980.59;4993244;28;20137;-60
2022/09/03 10:47:03;;;;;;;4.13;2.20;;;;;;;24.07;39.03;100977.59;4983990;28;20041;-59
2022/09/03 10:50:00;;;;;;;3.92;2.10;;;;;;;24.13;39.88;100980.94;4983644;28;20663;-60
2022/09/03 10:53:04;;;;;;;3.83;2.10;;;;;;;24.21;40.13;100974.50;4983845;28;20053;-60
2022/09/03 10:55:46;;;;;;;5.35;2.15;;;;;;;24.29;39.04;100980.47;4980681;28;20042;-60
2022/09/03 10:58:38;;;;;;;4.07;1.98;;;;;;;24.37;38.77;100975.75;4978645;28;20077;-60
2022/09/03 11:01:21;;;;;;;5.10;1.83;;;;;;;24.45;39.51;100979.06;4993106;28;20034;-60
2022/09/03 11:04:13;;;;;;;3.90;2.08;;;;;;;24.54;39.75;100983.22;4978576;28;20121;-60
2022/09/03 11:07:01;;;;;;;5.32;3.47;;;;;;;24.67;38.64;100970.41;4984496;28;20508;-60
2022/09/03 11:09:32;;;;;;;4.65;2.75;;;;;;;24.79;38.50;100977.97;4990704;28;20026;-60
2022/09/03 11:12:07;;;;;;;4.38;2.60;;;;;;;24.89;38.64;100975.00;4990492;28;21770;-61
2022/09/03 11:14:40;;;;;;;4.18;2.00;;;;;;;24.97;37.91;100971.16;4991725;28;20146;-60
2022/09/03 11:17:16;;;;;;;3.88;2.30;;;;;;;25.08;36.81;100975.22;4987167;28;20026;-61
2022/09/03 11:19:48;;;;;;;4.40;2.20;;;;;;;25.16;36.89;100973.19;4988641;28;20037;-61
2022/09/03 11:22:17;;;;;;;4.22;2.00;;;;;;;25.17;37.05;100973.13;4994346;28;20490;-61
2022/09/03 11:24:45;;;;;;;4.25;2.10;;;;;;;25.28;37.14;100974.53;4988648;28;20113;-60
2022/09/03 11:27:22;;;;;;;5.40;1.98;;;;;;;25.33;37.24;100967.25;4990779;28;20026;-61
2022/09/03 11:29:49;;;;;;;4.47;1.98;;;;;;;25.42;36.32;100969.59;4991746;28;20120;-61
2022/09/03 11:32:22;;;;;;;3.03;2.20;;;;;;;25.48;35.58;100966.69;4995994;28;20034;-60
2022/09/03 11:34:53;;;;;;;6.53;2.20;;;;;;;25.56;36.43;100968.22;4991854;28;20277;-59
2022/09/03 11:37:24;;;;;;;5.13;2.33;;;;;;;25.62;36.61;100963.53;4989619;28;20041;-60
2022/09/03 11:40:17;;;;;;;4.03;2.20;;;;;;;25.69;36.66;100967.72;4989577;28;20128;-60
2022/09/03 11:42:43;;;;;;;3.72;2.30;;;;;;;25.78;35.63;100961.16;4989030;28;20042;-60
2022/09/03 11:45:21;;;;;;;4.13;2.40;;;;;;;25.83;35.64;100956.50;4990147;28;20129;-60
2022/09/03 11:47:48;;;;;;;6.93;2.50;;;;;;;25.93;36.34;100953.50;4989124;28;20070;-60
2022/09/03 11:50:23;;;;;;;5.45;2.50;;;;;;;26.00;36.76;100957.69;4990577;28;20041;-60